Terminal Aerodrome Forecast
Issued by NWS Duluth, MN

Home | Current Version | Previous Version | Text Only | Print | Product List | Glossary On
Versions: 1 2 3 4 5 6 7 8 9 10 11 12 13 14 15 16 17 18 19 20 21 22 23 24 25 26 27 28 29 30 31 32
316
FTUS43 KDLH 251729
TAFDLH
TAF
KDLH 251729Z 2518/2618 09010G24KT 1/4SM FG VV002
      TEMPO 2518/2521 2SM BR OVC010
     FM252100 09014G24KT 5SM -RA OVC014
     FM260000 09014G18KT 5SM -RA BR OVC012
      TEMPO 2600/2602 4SM -TSRA OVC010CB
     FM260400 10012KT 4SM -RA BR OVC015
      TEMPO 2604/2608 2SM -TSRA OVC011CB
     FM260800 07008KT 1/2SM FG VCSH OVC005
     FM261400 12010KT 5SM BR VCSH OVC015=

USA.gov is the U.S. government's official web portal to all federal, state and local government web resources and services.